createdAt,value
2023-05-20T00:01:28.428Z,7.25
2023-05-20T00:04:31.033Z,8.18
2023-05-20T00:07:33.352Z,7.25
2023-05-20T00:10:36.381Z,8.02
2023-05-20T00:13:39.146Z,7.10
2023-05-20T00:16:41.795Z,7.82
2023-05-20T00:19:44.189Z,6.97
2023-05-20T00:22:46.701Z,7.18
2023-05-20T00:25:49.834Z,7.60
2023-05-20T00:28:52.256Z,9.68
2023-05-20T00:31:54.827Z,7.68
2023-05-20T00:35:01.291Z,10.27
2023-05-20T00:38:03.621Z,11.38
2023-05-20T00:41:06.013Z,9.80
2023-05-20T00:44:08.393Z,9.25
2023-05-20T00:47:10.823Z,9.13
2023-05-20T00:50:13.509Z,8.95
2023-05-20T00:53:21.486Z,8.65
2023-05-20T00:59:27.004Z,7.70
2023-05-20T01:02:29.972Z,7.55
2023-05-20T01:05:32.514Z,7.45
2023-05-20T01:08:35.725Z,8.48
2023-05-20T01:11:45.323Z,7.45
2023-05-20T01:15:00.601Z,7.93
2023-05-20T01:18:10.673Z,7.22
2023-05-20T01:21:15.943Z,7.88
2023-05-20T01:24:18.266Z,8.25
2023-05-20T01:27:22.616Z,7.57
2023-05-20T01:30:36.023Z,6.32
2023-05-20T01:33:41.587Z,8.30
2023-05-20T01:36:46.518Z,7.15
2023-05-20T01:39:50.916Z,8.10
2023-05-20T01:42:56.232Z,7.65
2023-05-20T01:45:58.656Z,7.55
2023-05-20T01:49:01.178Z,7.65
2023-05-20T01:52:04.572Z,7.53
2023-05-20T01:55:07.198Z,7.20
2023-05-20T01:58:09.664Z,7.85
2023-05-20T02:01:12.252Z,7.93
2023-05-20T02:04:14.722Z,7.15
2023-05-20T02:07:18.924Z,8.15
2023-05-20T02:10:21.408Z,8.40
2023-05-20T02:13:23.728Z,8.15
2023-05-20T02:16:26.416Z,7.97
2023-05-20T02:19:28.976Z,7.40
2023-05-20T02:22:31.695Z,7.72
2023-05-20T02:25:34.504Z,7.75
2023-05-20T02:28:40.558Z,7.97
2023-05-20T02:31:43.057Z,7.13
2023-05-20T02:34:45.608Z,6.95
2023-05-20T02:37:48.383Z,8.27
2023-05-20T02:40:51.297Z,8.32
2023-05-20T02:43:54.262Z,7.80
2023-05-20T02:46:56.575Z,7.65
2023-05-20T02:49:58.971Z,8.05
2023-05-20T02:53:01.328Z,8.02
2023-05-20T02:56:04.694Z,8.40
2023-05-20T02:59:07.420Z,8.30
2023-05-20T03:02:09.893Z,8.70
2023-05-20T03:05:12.430Z,7.38
2023-05-20T03:08:15.079Z,9.15
2023-05-20T03:11:17.373Z,7.72
2023-05-20T03:14:19.732Z,8.32
2023-05-20T03:17:23.198Z,8.55
2023-05-20T03:20:27.092Z,7.95
2023-05-20T03:23:30.283Z,8.45
2023-05-20T03:26:33.909Z,7.18
2023-05-20T03:29:36.283Z,7.30
2023-05-20T03:32:38.771Z,8.05
2023-05-20T03:35:41.467Z,7.63
2023-05-20T03:38:43.782Z,7.15
2023-05-20T03:41:46.149Z,7.40
2023-05-20T03:44:48.745Z,7.55
2023-05-20T03:47:52.114Z,7.53
2023-05-20T03:50:55.444Z,7.28
2023-05-20T03:53:57.816Z,7.25
2023-05-20T03:57:03.047Z,7.15
2023-05-20T04:00:12.234Z,7.15
2023-05-20T04:03:18.558Z,6.55
2023-05-20T04:06:22.692Z,7.53
2023-05-20T04:09:26.238Z,7.10
2023-05-20T04:12:30.796Z,6.93
2023-05-20T04:15:36.240Z,6.88
2023-05-20T04:18:39.277Z,7.82
2023-05-20T04:21:43.281Z,7.25
2023-05-20T04:24:46.131Z,6.63
2023-05-20T04:27:49.746Z,6.90
2023-05-20T04:30:59.221Z,6.50
2023-05-20T04:34:02.766Z,6.45
2023-05-20T04:37:07.759Z,6.18
2023-05-20T04:40:12.609Z,6.80
2023-05-20T04:43:15.697Z,6.13
2023-05-20T04:46:18.011Z,6.35
2023-05-20T04:49:20.294Z,6.65
2023-05-20T04:52:24.397Z,6.25
2023-05-20T04:55:27.590Z,5.75
2023-05-20T04:58:31.705Z,5.97
2023-05-20T05:01:34.701Z,5.95
2023-05-20T05:04:37.057Z,5.65
2023-05-20T05:07:39.426Z,7.18
2023-05-20T05:10:41.770Z,5.30
2023-05-20T05:13:45.624Z,6.72
2023-05-20T05:16:47.967Z,5.25
2023-05-20T05:19:51.088Z,5.70
2023-05-20T05:22:53.449Z,5.13
2023-05-20T05:25:56.048Z,5.45
2023-05-20T05:28:58.558Z,5.53
2023-05-20T05:32:01.332Z,5.60
2023-05-20T05:35:06.675Z,4.85
2023-05-20T05:38:10.673Z,4.97
2023-05-20T05:41:13.013Z,4.72
2023-05-20T05:44:15.720Z,5.05
2023-05-20T05:47:19.147Z,5.35
2023-05-20T05:50:22.458Z,4.50
2023-05-20T05:53:24.751Z,5.10
2023-05-20T05:56:27.652Z,4.90
2023-05-20T05:59:31.337Z,5.18
2023-05-20T06:02:36.661Z,5.45
2023-05-20T06:05:39.225Z,4.75
2023-05-20T06:08:41.565Z,4.95
2023-05-20T06:11:44.695Z,5.10
2023-05-20T06:14:47.879Z,5.63
2023-05-20T06:17:50.720Z,5.05
2023-05-20T06:20:57.713Z,4.70
2023-05-20T06:24:00.868Z,5.40
2023-05-20T06:27:03.327Z,6.15
2023-05-20T06:30:06.422Z,5.40
2023-05-20T06:33:09.123Z,4.95
2023-05-20T06:36:12.521Z,5.90
2023-05-20T06:39:14.829Z,4.63
2023-05-20T06:42:21.221Z,5.10
2023-05-20T06:45:37.762Z,5.60
2023-05-20T06:48:56.798Z,6.05
2023-05-20T06:51:59.115Z,5.20
2023-05-20T06:55:01.561Z,5.65
2023-05-20T06:58:04.092Z,5.60
2023-05-20T07:01:06.823Z,5.90
2023-05-20T07:04:09.364Z,5.70
2023-05-20T07:07:12.332Z,6.00
2023-05-20T07:10:15.482Z,6.18
2023-05-20T07:13:18.340Z,5.72
2023-05-20T07:16:20.745Z,5.57
2023-05-20T07:19:28.845Z,6.85
2023-05-20T07:22:31.348Z,6.57
2023-05-20T07:28:59.928Z,6.43
2023-05-20T07:32:03.168Z,6.72
2023-05-20T07:35:05.982Z,6.72
2023-05-20T07:38:08.465Z,7.00
2023-05-20T07:41:11.533Z,6.97
2023-05-20T07:44:13.926Z,7.30
2023-05-20T07:47:20.806Z,7.35
2023-05-20T07:50:23.389Z,6.55
2023-05-20T07:53:26.278Z,6.28
2023-05-20T07:56:28.942Z,6.38
2023-05-20T07:59:31.387Z,6.28
2023-05-20T08:02:34.964Z,5.85
2023-05-20T08:05:41.900Z,6.70
2023-05-20T08:08:44.304Z,7.75
2023-05-20T08:11:54.079Z,7.03
2023-05-20T08:14:56.526Z,6.32
2023-05-20T08:17:58.851Z,6.80
2023-05-20T08:21:02.033Z,6.63
2023-05-20T08:24:05.151Z,6.47
2023-05-20T08:27:08.548Z,6.75
2023-05-20T08:30:11.146Z,6.80
2023-05-20T08:33:13.970Z,6.95
2023-05-20T08:36:16.473Z,6.43
2023-05-20T08:39:19.549Z,6.80
2023-05-20T08:42:26.787Z,7.25
2023-05-20T08:45:37.272Z,6.45
2023-05-20T08:48:44.489Z,6.72
2023-05-20T08:51:47.429Z,7.10
2023-05-20T08:54:50.678Z,6.88
2023-05-20T08:57:54.759Z,7.13
2023-05-20T09:00:58.873Z,7.30
2023-05-20T09:04:01.273Z,6.75
2023-05-20T09:07:04.009Z,7.30
2023-05-20T09:10:06.879Z,6.43
2023-05-20T09:13:10.432Z,7.03
2023-05-20T09:16:13.575Z,6.40
2023-05-20T09:19:16.012Z,6.88
2023-05-20T09:22:26.061Z,7.03
2023-05-20T09:25:29.484Z,7.45
2023-05-20T09:28:31.929Z,6.88
2023-05-20T09:31:35.615Z,7.00
2023-05-20T09:34:38.595Z,7.78
2023-05-20T09:37:43.055Z,6.82
2023-05-20T09:40:47.160Z,7.63
2023-05-20T09:43:51.244Z,7.43
2023-05-20T09:46:54.420Z,8.07
2023-05-20T09:49:57.395Z,7.43
2023-05-20T09:53:03.712Z,7.63
2023-05-20T09:56:06.243Z,7.47
2023-05-20T09:59:10.648Z,7.40
2023-05-20T10:02:13.125Z,7.53
2023-05-20T10:05:25.924Z,6.80
2023-05-20T10:09:02.237Z,8.07
2023-05-20T10:12:42.802Z,7.63
2023-05-20T10:16:08.096Z,7.65
2023-05-20T10:19:30.985Z,7.80
2023-05-20T10:22:33.574Z,7.78
2023-05-20T10:25:36.106Z,7.78
2023-05-20T10:28:41.176Z,7.55
2023-05-20T10:31:51.542Z,7.95
2023-05-20T10:35:00.014Z,7.88
2023-05-20T10:38:11.002Z,7.53
2023-05-20T10:41:13.470Z,8.02
2023-05-20T10:44:15.768Z,7.47
2023-05-20T10:47:25.368Z,7.47
2023-05-20T10:50:36.488Z,7.63
2023-05-20T10:53:40.319Z,7.70
2023-05-20T10:56:52.692Z,7.95
2023-05-20T10:59:56.123Z,6.90
2023-05-20T11:02:58.674Z,7.75
2023-05-20T11:06:01.205Z,7.63
2023-05-20T11:09:08.305Z,7.05
2023-05-20T11:12:10.733Z,7.95
2023-05-20T11:15:13.340Z,7.15
2023-05-20T11:18:18.421Z,6.82
2023-05-20T11:21:21.201Z,7.30
2023-05-20T11:24:28.251Z,7.28
2023-05-20T11:30:33.429Z,7.35
2023-05-20T11:33:36.385Z,7.25
2023-05-20T11:36:43.361Z,7.70
2023-05-20T11:39:46.164Z,6.97
2023-05-20T11:42:49.521Z,7.90
2023-05-20T11:45:59.885Z,7.22
2023-05-20T11:49:02.415Z,7.18
2023-05-20T11:52:04.902Z,7.25
2023-05-20T11:55:11.407Z,6.57
2023-05-20T11:58:17.193Z,6.88
2023-05-20T12:01:22.882Z,6.65
2023-05-20T12:04:25.722Z,6.40
2023-05-20T12:07:28.493Z,6.20
2023-05-20T12:10:31.247Z,6.18
2023-05-20T12:13:35.244Z,7.22
2023-05-20T12:16:38.536Z,6.50
2023-05-20T12:19:42.000Z,6.07
2023-05-20T12:22:45.858Z,6.50
2023-05-20T12:25:49.958Z,5.93
2023-05-20T12:28:52.842Z,6.07
2023-05-20T12:31:55.216Z,6.25
2023-05-20T12:35:00.197Z,6.43
2023-05-20T12:38:02.613Z,6.47
2023-05-20T12:41:04.914Z,6.45
2023-05-20T12:44:07.227Z,6.72
2023-05-20T12:47:09.862Z,6.13
2023-05-20T12:50:12.258Z,6.32
2023-05-20T12:53:14.604Z,6.28
2023-05-20T12:56:16.978Z,6.57
2023-05-20T12:59:19.275Z,6.72
2023-05-20T13:02:21.625Z,6.05
2023-05-20T13:05:24.056Z,6.60
2023-05-20T13:08:28.686Z,6.47
2023-05-20T13:11:31.286Z,6.20
2023-05-20T13:14:33.600Z,6.45
2023-05-20T13:17:36.058Z,6.18
2023-05-20T13:20:38.865Z,6.07
2023-05-20T13:23:41.733Z,6.03
2023-05-20T13:26:44.098Z,6.60
2023-05-20T13:29:46.437Z,6.50
2023-05-20T13:32:48.812Z,6.28
2023-05-20T13:35:51.692Z,6.55
2023-05-20T13:38:53.989Z,7.57
2023-05-20T13:41:56.487Z,6.20
2023-05-20T13:44:58.840Z,6.95
2023-05-20T13:48:01.166Z,6.53
2023-05-20T13:51:03.765Z,5.70
2023-05-20T13:54:06.675Z,5.97
2023-05-20T13:57:11.797Z,6.60
2023-05-20T14:00:15.803Z,6.53
2023-05-20T14:03:18.485Z,6.85
2023-05-20T14:06:21.009Z,6.25
2023-05-20T14:09:23.336Z,6.55
2023-05-20T14:12:25.776Z,6.53
2023-05-20T14:15:30.820Z,6.07
2023-05-20T14:18:33.183Z,6.78
2023-05-20T14:21:35.674Z,6.85
2023-05-20T14:24:38.009Z,6.43
2023-05-20T14:27:40.314Z,6.50
2023-05-20T14:30:42.639Z,6.03
2023-05-20T14:33:45.123Z,7.10
2023-05-20T14:36:47.782Z,6.70
2023-05-20T14:39:50.095Z,6.28
2023-05-20T14:42:52.430Z,6.15
2023-05-20T14:45:54.799Z,5.75
2023-05-20T14:48:57.125Z,6.30
2023-05-20T14:51:59.488Z,6.25
2023-05-20T14:55:01.769Z,6.82
2023-05-20T14:58:04.155Z,6.30
2023-05-20T15:01:06.489Z,6.43
2023-05-20T15:04:08.833Z,6.43
2023-05-20T15:07:11.158Z,6.45
2023-05-20T15:10:13.468Z,6.80
2023-05-20T15:13:15.820Z,6.32
2023-05-20T15:16:19.534Z,6.30
2023-05-20T15:19:22.204Z,6.35
2023-05-20T15:22:24.572Z,6.80
2023-05-20T15:25:26.882Z,6.28
2023-05-20T15:28:29.146Z,6.13
2023-05-20T15:31:31.477Z,6.65
2023-05-20T15:34:34.132Z,7.28
2023-05-20T15:37:36.474Z,6.00
2023-05-20T15:40:39.561Z,6.35
2023-05-20T15:43:42.345Z,6.97
2023-05-20T15:46:45.540Z,6.57
2023-05-20T15:49:47.869Z,6.00
2023-05-20T15:52:53.271Z,6.28
2023-05-20T15:55:55.680Z,5.75
2023-05-20T15:58:57.981Z,6.55
2023-05-20T16:02:00.738Z,6.28
2023-05-20T16:05:03.626Z,6.30
2023-05-20T16:08:06.363Z,6.10
2023-05-20T16:11:09.246Z,5.80
2023-05-20T16:14:11.984Z,6.25
2023-05-20T16:17:14.583Z,5.15
2023-05-20T16:20:16.860Z,5.85
2023-05-20T16:23:19.159Z,5.93
2023-05-20T16:26:21.473Z,5.72
2023-05-20T16:29:23.714Z,5.82
2023-05-20T16:32:27.104Z,6.10
2023-05-20T16:35:29.551Z,5.25
2023-05-20T16:38:32.616Z,5.53
2023-05-20T16:41:35.044Z,5.22
2023-05-20T16:44:39.168Z,5.40
2023-05-20T16:47:41.654Z,4.90
2023-05-20T16:50:43.957Z,5.13
2023-05-20T16:53:46.338Z,4.93
2023-05-20T16:56:48.657Z,5.25
2023-05-20T16:59:51.031Z,4.75
2023-05-20T17:02:53.355Z,4.88
2023-05-20T17:05:55.983Z,4.95
2023-05-20T17:08:59.648Z,4.97
2023-05-20T17:12:02.797Z,4.55
2023-05-20T17:15:06.165Z,4.80
2023-05-20T17:18:08.629Z,4.70
2023-05-20T17:21:10.928Z,5.45
2023-05-20T17:24:13.242Z,4.47
2023-05-20T17:27:15.519Z,4.55
2023-05-20T17:30:17.851Z,5.30
2023-05-20T17:33:20.492Z,5.07
2023-05-20T17:36:23.102Z,4.60
2023-05-20T17:39:25.648Z,4.00
2023-05-20T17:42:27.915Z,5.65
2023-05-20T17:45:30.211Z,4.38
2023-05-20T17:48:33.042Z,5.05
2023-05-20T17:51:35.543Z,4.95
2023-05-20T17:54:37.819Z,4.53
2023-05-20T17:57:40.098Z,5.20
2023-05-20T18:00:42.825Z,5.22
2023-05-20T18:03:45.247Z,5.68
2023-05-20T18:06:47.520Z,5.63
2023-05-20T18:09:49.934Z,5.50
2023-05-20T18:12:52.330Z,5.57
2023-05-20T18:15:54.687Z,5.38
2023-05-20T18:18:57.905Z,4.97
2023-05-20T18:22:01.192Z,5.40
2023-05-20T18:25:03.797Z,5.30
2023-05-20T18:28:06.170Z,6.68
2023-05-20T18:31:09.899Z,5.20
2023-05-20T18:34:12.257Z,5.78
2023-05-20T18:37:14.610Z,5.93
2023-05-20T18:40:17.132Z,6.30
2023-05-20T18:43:19.630Z,6.32
2023-05-20T18:46:21.988Z,5.53
2023-05-20T18:49:24.384Z,5.70
2023-05-20T18:52:26.877Z,5.35
2023-05-20T18:55:29.276Z,4.95
2023-05-20T18:58:31.780Z,4.93
2023-05-20T19:01:36.627Z,5.00
2023-05-20T19:04:39.367Z,5.28
2023-05-20T19:07:41.969Z,5.45
2023-05-20T19:10:44.276Z,5.40
2023-05-20T19:13:46.700Z,5.05
2023-05-20T19:16:49.394Z,5.40
2023-05-20T19:19:55.721Z,5.15
2023-05-20T19:22:59.927Z,5.40
2023-05-20T19:26:02.534Z,5.28
2023-05-20T19:29:07.210Z,5.60
2023-05-20T19:32:10.265Z,5.53
2023-05-20T19:35:13.724Z,5.55
2023-05-20T19:38:25.106Z,5.32
2023-05-20T19:41:28.745Z,5.78
2023-05-20T19:44:38.065Z,5.38
2023-05-20T19:47:48.595Z,6.05
2023-05-20T19:50:56.156Z,6.15
2023-05-20T19:53:58.593Z,5.43
2023-05-20T19:57:06.226Z,5.32
2023-05-20T20:00:11.352Z,6.07
2023-05-20T20:06:33.252Z,5.72
2023-05-20T20:09:40.204Z,5.63
2023-05-20T20:12:44.384Z,5.50
2023-05-20T20:16:01.703Z,6.00
2023-05-20T20:19:08.412Z,5.63
2023-05-20T20:22:18.303Z,6.47
2023-05-20T20:25:36.861Z,6.07
2023-05-20T20:28:43.631Z,6.30
2023-05-20T20:31:46.586Z,6.03
2023-05-20T20:34:48.882Z,5.32
2023-05-20T20:38:03.862Z,6.15
2023-05-20T20:41:09.631Z,5.53
2023-05-20T20:44:17.282Z,5.55
2023-05-20T20:47:22.302Z,6.20
2023-05-20T20:50:36.440Z,5.75
2023-05-20T20:53:46.050Z,5.82
2023-05-20T20:56:53.832Z,5.72
2023-05-20T21:03:00.202Z,6.30
2023-05-20T21:06:03.368Z,5.22
2023-05-20T21:09:05.839Z,5.70
2023-05-20T21:12:08.134Z,5.40
2023-05-20T21:15:12.551Z,6.43
2023-05-20T21:18:21.620Z,5.32
2023-05-20T21:21:23.930Z,6.18
2023-05-20T21:24:26.205Z,6.18
2023-05-20T21:27:28.484Z,5.72
2023-05-20T21:30:31.063Z,5.80
2023-05-20T21:33:33.367Z,6.65
2023-05-20T21:36:36.333Z,5.60
2023-05-20T21:39:38.926Z,6.72
2023-05-20T21:42:41.619Z,6.70
2023-05-20T21:45:43.946Z,6.32
2023-05-20T21:48:46.246Z,6.50
2023-05-20T21:51:48.700Z,5.63
2023-05-20T21:54:51.701Z,5.78
2023-05-20T21:57:53.973Z,6.13
2023-05-20T22:00:56.546Z,6.05
2023-05-20T22:03:59.470Z,6.05
2023-05-20T22:07:01.977Z,5.78
2023-05-20T22:10:04.996Z,5.88
2023-05-20T22:13:07.283Z,5.60
2023-05-20T22:16:09.966Z,5.57
2023-05-20T22:19:16.367Z,5.97
2023-05-20T22:22:19.335Z,5.72
2023-05-20T22:25:22.694Z,6.28
2023-05-20T22:28:35.141Z,5.75
2023-05-20T22:31:38.113Z,6.60
2023-05-20T22:34:40.641Z,6.70
2023-05-20T22:37:43.319Z,6.57
2023-05-20T22:40:46.023Z,6.10
2023-05-20T22:43:48.863Z,6.68
2023-05-20T22:46:51.152Z,6.80
2023-05-20T22:49:53.948Z,6.18
2023-05-20T22:52:56.348Z,5.68
2023-05-20T22:56:00.070Z,6.43
2023-05-20T22:59:03.266Z,7.10
2023-05-20T23:02:06.257Z,6.47
2023-05-20T23:05:08.864Z,6.57
2023-05-20T23:08:11.144Z,5.88
2023-05-20T23:11:13.480Z,6.80
2023-05-20T23:14:15.917Z,6.07
2023-05-20T23:17:18.205Z,5.93
2023-05-20T23:20:23.027Z,6.60
2023-05-20T23:23:31.247Z,5.88
2023-05-20T23:26:34.584Z,5.95
2023-05-20T23:29:36.935Z,5.82
2023-05-20T23:32:39.295Z,5.38
2023-05-20T23:35:44.076Z,6.70
2023-05-20T23:38:46.395Z,6.18
2023-05-20T23:41:48.966Z,6.63
2023-05-20T23:44:51.535Z,7.35
2023-05-20T23:47:55.547Z,6.55
2023-05-20T23:50:57.958Z,7.20
2023-05-20T23:54:00.254Z,6.75
2023-05-20T23:57:02.666Z,6.85
